Time,TemperatureF,DewpointF,PressureIn,WindDirection,WindDirectionDegrees,WindSpeedMPH,WindSpeedGustMPH,Humidity,HourlyPrecipIn,Conditions,Clouds,dailyrainin,SoftwareType,DateUTC
2013-04-13 00:02:00,37.8,37.0,29.78,North,9,0.0,-999.0,96,-99.99,,,0.02,weatherlink.com 1.10,2013-04-13 04:02:00,
2013-04-13 00:17:00,37.8,37.0,29.78,NNE,15,0.0,-999.0,96,-99.99,,,0.02,weatherlink.com 1.10,2013-04-13 04:17:00,
2013-04-13 00:47:00,37.6,37.0,29.78,NNE,31,0.0,-999.0,96,-99.99,,,0.02,weatherlink.com 1.10,2013-04-13 04:47:00,
2013-04-13 01:02:00,37.6,37.0,29.78,North,360,0.0,-999.0,96,-99.99,,,0.03,weatherlink.com 1.10,2013-04-13 05:02:00,
2013-04-13 01:17:00,37.6,37.0,29.79,NNE,21,0.0,-999.0,97,-99.99,,,0.03,weatherlink.com 1.10,2013-04-13 05:17:00,
2013-04-13 01:32:00,37.6,37.0,29.79,NNE,32,0.0,-999.0,97,-99.99,,,0.03,weatherlink.com 1.10,2013-04-13 05:32:00,
2013-04-13 01:47:00,37.6,37.0,29.78,North,9,0.0,-999.0,96,-99.99,,,0.03,weatherlink.com 1.10,2013-04-13 05:47:00,
2013-04-13 02:01:00,37.5,37.0,29.77,NNW,342,0.0,-999.0,96,-99.99,,,0.03,weatherlink.com 1.10,2013-04-13 06:01:00,
2013-04-13 02:16:00,37.4,36.0,29.78,NE,37,0.0,-999.0,96,-99.99,,,0.03,weatherlink.com 1.10,2013-04-13 06:16:00,
2013-04-13 03:01:00,37.1,36.0,29.78,NE,56,0.0,-999.0,96,-99.99,,,0.08,weatherlink.com 1.10,2013-04-13 07:01:00,
2013-04-13 03:16:00,36.9,36.0,29.74,NE,52,0.0,-999.0,96,-99.99,,,0.08,weatherlink.com 1.10,2013-04-13 07:16:00,
2013-04-13 03:31:00,36.7,36.0,29.77,NNE,26,0.0,-999.0,96,-99.99,,,0.08,weatherlink.com 1.10,2013-04-13 07:31:00,
2013-04-13 03:46:00,36.8,36.0,29.75,NE,40,0.0,-999.0,96,-99.99,,,0.09,weatherlink.com 1.10,2013-04-13 07:46:00,
2013-04-13 04:01:00,36.4,35.0,29.75,North,5,0.0,-999.0,96,-99.99,,,0.09,weatherlink.com 1.10,2013-04-13 08:01:00,
2013-04-13 04:16:00,35.8,35.0,29.74,NE,46,0.0,-999.0,96,-99.99,,,0.09,weatherlink.com 1.10,2013-04-13 08:16:00,
2013-04-13 04:31:00,35.5,35.0,29.76,NNE,13,0.0,-999.0,96,-99.99,,,0.09,weatherlink.com 1.10,2013-04-13 08:31:00,
2013-04-13 04:46:00,35.4,34.0,29.76,NNE,22,0.0,-999.0,96,-99.99,,,0.09,weatherlink.com 1.10,2013-04-13 08:46:00,
2013-04-13 05:01:00,35.3,34.0,29.78,NNE,13,0.0,-999.0,96,-99.99,,,0.09,weatherlink.com 1.10,2013-04-13 09:01:00,
2013-04-13 05:16:00,35.2,34.0,29.78,NNW,330,0.0,-999.0,96,-99.99,,,0.09,weatherlink.com 1.10,2013-04-13 09:16:00,
2013-04-13 05:46:00,35.3,34.0,29.78,NNW,341,0.0,-999.0,96,-99.99,,,0.09,weatherlink.com 1.10,2013-04-13 09:46:00,
2013-04-13 06:16:00,35.2,34.0,29.78,NNW,332,0.0,-999.0,96,-99.99,,,0.09,weatherlink.com 1.10,2013-04-13 10:16:00,
2013-04-13 06:31:00,35.3,34.0,29.80,North,360,0.0,-999.0,96,-99.99,,,0.09,weatherlink.com 1.10,2013-04-13 10:31:00,
2013-04-13 06:46:00,35.4,34.0,29.80,NE,39,0.0,-999.0,96,-99.99,,,0.09,weatherlink.com 1.10,2013-04-13 10:46:00,
2013-04-13 07:16:00,35.7,34.0,29.81,NNE,16,0.0,-999.0,95,-99.99,,,0.09,weatherlink.com 1.10,2013-04-13 11:16:00,
2013-04-13 07:31:00,35.7,34.0,29.82,NNW,340,0.0,-999.0,94,-99.99,,,0.09,weatherlink.com 1.10,2013-04-13 11:31:00,
2013-04-13 08:01:00,35.9,34.0,29.82,NNW,336,0.0,-999.0,93,-99.99,,,0.09,weatherlink.com 1.10,2013-04-13 12:01:00,
2013-04-13 08:46:00,36.6,35.0,29.82,NNW,329,0.0,-999.0,92,-99.99,,,0.09,weatherlink.com 1.10,2013-04-13 12:46:00,
2013-04-13 10:16:00,39.5,37.0,29.83,NNW,331,0.0,-999.0,89,-99.99,,,0.09,weatherlink.com 1.10,2013-04-13 14:16:00,
2013-04-13 10:46:00,39.7,36.0,29.83,NW,315,0.0,-999.0,86,-99.99,,,0.09,weatherlink.com 1.10,2013-04-13 14:46:00,
2013-04-13 11:01:00,40.1,36.0,29.83,NW,310,0.0,-999.0,86,-99.99,,,0.09,weatherlink.com 1.10,2013-04-13 15:01:00,
2013-04-13 11:16:00,41.9,38.0,29.83,NNW,338,0.0,-999.0,86,-99.99,,,0.09,weatherlink.com 1.10,2013-04-13 15:16:00,
2013-04-13 12:01:00,45.5,39.0,29.81,WNW,296,0.0,-999.0,78,-99.99,,,0.09,weatherlink.com 1.10,2013-04-13 16:01:00,
2013-04-13 13:16:00,47.8,39.0,29.80,NE,41,0.0,-999.0,72,-99.99,,,0.09,weatherlink.com 1.10,2013-04-13 17:16:00,
2013-04-13 14:01:00,52.0,39.0,29.78,NW,309,0.0,-999.0,61,-99.99,,,0.09,weatherlink.com 1.10,2013-04-13 18:01:00,
2013-04-13 14:31:00,51.6,38.0,29.78,WNW,289,0.0,-999.0,60,-99.99,,,0.09,weatherlink.com 1.10,2013-04-13 18:31:00,
2013-04-13 14:46:00,51.5,38.0,29.79,WNW,293,0.0,-999.0,61,-99.99,,,0.09,weatherlink.com 1.10,2013-04-13 18:46:00,
2013-04-13 15:01:00,51.0,39.0,29.78,West,277,0.0,-999.0,64,-99.99,,,0.09,weatherlink.com 1.10,2013-04-13 19:01:00,
2013-04-13 15:16:00,51.0,37.0,29.78,NW,306,0.0,-999.0,60,-99.99,,,0.09,weatherlink.com 1.10,2013-04-13 19:16:00,
2013-04-13 15:31:00,50.3,38.0,29.79,WNW,300,0.0,-999.0,62,-99.99,,,0.09,weatherlink.com 1.10,2013-04-13 19:31:00,
2013-04-13 15:46:00,50.8,38.0,29.78,West,276,0.0,-999.0,62,-99.99,,,0.09,weatherlink.com 1.10,2013-04-13 19:46:00,
2013-04-13 16:16:00,50.5,37.0,29.78,WNW,288,0.0,-999.0,60,-99.99,,,0.09,weatherlink.com 1.10,2013-04-13 20:16:00,
2013-04-13 16:31:00,50.8,38.0,29.79,WSW,244,0.0,-999.0,62,-99.99,,,0.09,weatherlink.com 1.10,2013-04-13 20:31:00,
2013-04-13 16:46:00,52.5,37.0,29.79,West,269,0.0,-999.0,56,-99.99,,,0.09,weatherlink.com 1.10,2013-04-13 20:46:00,
2013-04-13 17:01:00,51.1,37.0,29.80,SSW,213,0.0,-999.0,60,-99.99,,,0.09,weatherlink.com 1.10,2013-04-13 21:01:00,
2013-04-13 17:16:00,51.0,38.0,29.81,SSW,198,0.0,-999.0,62,-99.99,,,0.09,weatherlink.com 1.10,2013-04-13 21:16:00,
2013-04-13 17:31:00,50.9,38.0,29.81,SSW,194,0.0,-999.0,62,-99.99,,,0.09,weatherlink.com 1.10,2013-04-13 21:31:00,
2013-04-13 18:01:00,50.7,39.0,29.82,SSW,194,0.0,-999.0,64,-99.99,,,0.09,weatherlink.com 1.10,2013-04-13 22:01:00,
2013-04-13 18:16:00,50.3,40.0,29.82,SSW,194,0.0,-999.0,67,-99.99,,,0.09,weatherlink.com 1.10,2013-04-13 22:16:00,
2013-04-13 18:31:00,49.3,40.0,29.83,SSW,194,0.0,-999.0,71,-99.99,,,0.09,weatherlink.com 1.10,2013-04-13 22:31:00,
2013-04-13 18:46:00,48.5,41.0,29.83,SSW,194,0.0,-999.0,76,-99.99,,,0.09,weatherlink.com 1.10,2013-04-13 22:46:00,
2013-04-13 19:01:00,47.8,42.0,29.84,SSW,194,0.0,-999.0,80,-99.99,,,0.09,weatherlink.com 1.10,2013-04-13 23:01:00,
2013-04-13 19:16:00,47.2,42.0,29.84,SSW,194,0.0,-999.0,81,-99.99,,,0.09,weatherlink.com 1.10,2013-04-13 23:16:00,
2013-04-13 19:31:00,46.8,42.0,29.84,SSW,194,0.0,-999.0,83,-99.99,,,0.09,weatherlink.com 1.10,2013-04-13 23:31:00,
2013-04-13 19:46:00,46.2,43.0,29.84,SSW,194,0.0,-999.0,87,-99.99,,,0.00,weatherlink.com 1.10,2013-04-13 23:46:00,
2013-04-13 20:01:00,45.9,42.0,29.85,SSW,194,0.0,-999.0,87,-99.99,,,0.00,weatherlink.com 1.10,2013-04-14 00:01:00,
2013-04-13 20:16:00,45.6,42.0,29.86,SSW,194,0.0,-999.0,88,-99.99,,,0.00,weatherlink.com 1.10,2013-04-14 00:16:00,
2013-04-13 20:46:00,45.1,42.0,29.87,SSW,194,0.0,-999.0,90,-99.99,,,0.00,weatherlink.com 1.10,2013-04-14 00:46:00,
2013-04-13 21:01:00,44.7,42.0,29.87,SSW,194,0.0,-999.0,91,-99.99,,,0.00,weatherlink.com 1.10,2013-04-14 01:01:00,
2013-04-13 21:16:00,44.5,42.0,29.87,SSW,194,0.0,-999.0,90,-99.99,,,0.00,weatherlink.com 1.10,2013-04-14 01:16:00,
2013-04-13 21:31:00,44.3,42.0,29.87,SSW,194,0.0,-999.0,90,-99.99,,,0.00,weatherlink.com 1.10,2013-04-14 01:31:00,
2013-04-13 21:46:00,43.9,42.0,29.87,SSW,194,0.0,-999.0,91,-99.99,,,0.00,weatherlink.com 1.10,2013-04-14 01:46:00,
2013-04-13 22:01:00,43.8,41.0,29.88,SSW,194,0.0,-999.0,91,-99.99,,,0.00,weatherlink.com 1.10,2013-04-14 02:01:00,
2013-04-13 22:16:00,43.6,41.0,29.89,SSW,194,0.0,-999.0,91,-99.99,,,0.00,weatherlink.com 1.10,2013-04-14 02:16:00,
2013-04-13 22:31:00,43.2,41.0,29.88,SSW,194,0.0,-999.0,91,-99.99,,,0.00,weatherlink.com 1.10,2013-04-14 02:31:00,
2013-04-13 23:01:00,42.9,41.0,29.89,SSW,194,0.0,-999.0,93,-99.99,,,0.00,weatherlink.com 1.10,2013-04-14 03:01:00,
2013-04-13 23:16:00,42.6,41.0,29.89,SSW,194,0.0,-999.0,93,-99.99,,,0.00,weatherlink.com 1.10,2013-04-14 03:16:00,
2013-04-13 23:31:00,42.7,41.0,29.89,SSW,194,0.0,-999.0,93,-99.99,,,0.00,weatherlink.com 1.10,2013-04-14 03:31:00,
2013-04-13 23:46:00,42.8,41.0,29.91,SSW,194,0.0,-999.0,94,-99.99,,,0.00,weatherlink.com 1.10,2013-04-14 03:46:00,